Schoonebeek, Netherlands
Current Conditions -  °F | °C
As of 9:25 PM on Tuesday 21 Oct 2014 (Local Time) from EHGG Reporting Station
Clear Clear  
Wind Chill: 43°   Ceiling: Unl
Heat Index: 48°   Visibility: 6mi
Dew Point: 43°   Wind: 12mph
Humidity: 82%   Direction: 270°W
Pressure: 29.5"   Gusts: NA
Location:  52.66°N, 6.88°E
Report Text: EHGG 211925Z AUTO 27010KT 240V300 9999 NSC 09/06 Q0999 TEMPO29020G32KT 7000 -SHRA FEW025CB BECMG 28015G25KT
Loading
Personal Weather Stations






























Interactive Weather Map
Tropical Storm Tracking
New forecast layout! Learn more

10-Day Weather Forecast

Advertisements
Track Severe Weather on mobile